UTA719 UEEE-UHMM
Flight info
| Callsign | UTA719 |
|---|---|
| Flight time | N/A |
| Altitude | 35000 |
| Route | KUTEG6E KUTEG G370 INLIR A949 KUKIR KUKIR5J |
| Aircraft | B762/H-SDFGIRWY/S |
Departure
| Time | 2026-04-25 10:41 |
|---|---|
| Airport | Platon Oyunsky Yakutsk International Airport (UEEE) |
Arrival
| Time | N/A |
|---|---|
| Airport | Sokol Airport (UHMM) |
| Time | Latitude | Longitude | Altitude | Speed | Heading |
|---|---|---|---|---|---|
| 2026-04-25 10:06 | 62.08754 | 129.75194 | 338 ft | 0 kts | 269° |
| 2026-04-25 10:30 | 62.08754 | 129.75215 | 338 ft | 0 kts | 269° |
| 2026-04-25 10:31 | 62.08756 | 129.75243 | 338 ft | 2 kts | 258° |
| 2026-04-25 10:31 | 62.08760 | 129.75273 | 338 ft | 2 kts | 245° |
| 2026-04-25 10:31 | 62.08767 | 129.75299 | 338 ft | 2 kts | 232° |
| 2026-04-25 10:31 | 62.08777 | 129.75322 | 338 ft | 2 kts | 219° |
| 2026-04-25 10:32 | 62.08786 | 129.75336 | 338 ft | 1 kts | 210° |
| 2026-04-25 10:32 | 62.08787 | 129.75336 | 338 ft | 0 kts | 210° |
| 2026-04-25 10:35 | 62.08782 | 129.75331 | 338 ft | 1 kts | 207° |
| 2026-04-25 10:36 | 62.08765 | 129.75323 | 338 ft | 2 kts | 180° |
| 2026-04-25 10:36 | 62.08734 | 129.75342 | 338 ft | 7 kts | 165° |
| 2026-04-25 10:36 | 62.08670 | 129.75380 | 338 ft | 11 kts | 165° |
| 2026-04-25 10:36 | 62.08586 | 129.75331 | 338 ft | 15 kts | 211° |
| 2026-04-25 10:37 | 62.08488 | 129.75211 | 338 ft | 16 kts | 210° |
| 2026-04-25 10:37 | 62.08392 | 129.75099 | 338 ft | 14 kts | 200° |
| 2026-04-25 10:37 | 62.08329 | 129.75179 | 338 ft | 10 kts | 124° |
| 2026-04-25 10:37 | 62.08298 | 129.75290 | 338 ft | 8 kts | 120° |
| 2026-04-25 10:38 | 62.08272 | 129.75388 | 338 ft | 7 kts | 120° |
| 2026-04-25 10:38 | 62.08246 | 129.75482 | 338 ft | 7 kts | 120° |
| 2026-04-25 10:38 | 62.08221 | 129.75577 | 338 ft | 7 kts | 117° |
| 2026-04-25 10:38 | 62.08210 | 129.75678 | 338 ft | 6 kts | 81° |
| 2026-04-25 10:39 | 62.08229 | 129.75734 | 338 ft | 0 kts | 38° |
| 2026-04-25 10:39 | 62.08236 | 129.75745 | 338 ft | 2 kts | 38° |
| 2026-04-25 10:39 | 62.08264 | 129.75792 | 338 ft | 8 kts | 38° |
| 2026-04-25 10:39 | 62.08343 | 129.75919 | 338 ft | 26 kts | 37° |
| 2026-04-25 10:40 | 62.08598 | 129.76327 | 338 ft | 65 kts | 37° |
| 2026-04-25 10:40 | 62.09070 | 129.77080 | 338 ft | 101 kts | 37° |
| 2026-04-25 10:40 | 62.09710 | 129.78107 | 338 ft | 131 kts | 37° |
| 2026-04-25 10:40 | 62.10503 | 129.79373 | 372 ft | 152 kts | 37° |
| 2026-04-25 10:41 | 62.11383 | 129.80785 | 510 ft | 165 kts | 37° |
| 2026-04-25 10:41 | 62.12309 | 129.82291 | 892 ft | 165 kts | 37° |
| 2026-04-25 10:41 | 62.13207 | 129.83748 | 1256 ft | 162 kts | 36° |
| 2026-04-25 10:41 | 62.14126 | 129.85214 | 1467 ft | 171 kts | 35° |
| 2026-04-25 10:42 | 62.15121 | 129.86800 | 1663 ft | 184 kts | 34° |
| 2026-04-25 10:42 | 62.16174 | 129.88486 | 1870 ft | 198 kts | 35° |
| 2026-04-25 10:42 | 62.17313 | 129.90314 | 2137 ft | 211 kts | 35° |
| 2026-04-25 10:42 | 62.18518 | 129.92253 | 2422 ft | 226 kts | 35° |
| 2026-04-25 10:43 | 62.19765 | 129.94400 | 2751 ft | 238 kts | 46° |
| 2026-04-25 10:43 | 62.20570 | 129.97655 | 3006 ft | 258 kts | 78° |
| 2026-04-25 10:43 | 62.20455 | 130.01459 | 3598 ft | 263 kts | 109° |
| 2026-04-25 10:43 | 62.19656 | 130.04933 | 4256 ft | 263 kts | 116° |
| 2026-04-25 10:44 | 62.18825 | 130.08470 | 4902 ft | 265 kts | 115° |
| 2026-04-25 10:44 | 62.18029 | 130.11964 | 5537 ft | 267 kts | 114° |
| 2026-04-25 10:44 | 62.17223 | 130.15541 | 6177 ft | 268 kts | 114° |
| 2026-04-25 10:44 | 62.16416 | 130.19148 | 6781 ft | 270 kts | 114° |
| 2026-04-25 10:45 | 62.15602 | 130.22790 | 7465 ft | 272 kts | 113° |
| 2026-04-25 10:45 | 62.14797 | 130.26402 | 8129 ft | 274 kts | 113° |
| 2026-04-25 10:45 | 62.13983 | 130.30054 | 8793 ft | 276 kts | 113° |
| 2026-04-25 10:45 | 62.13150 | 130.33784 | 9421 ft | 279 kts | 113° |
| 2026-04-25 10:46 | 62.12319 | 130.37497 | 10086 ft | 282 kts | 113° |
| 2026-04-25 10:46 | 62.11463 | 130.41322 | 10578 ft | 292 kts | 113° |
| 2026-04-25 10:46 | 62.10561 | 130.45348 | 10897 ft | 309 kts | 113° |
| 2026-04-25 10:46 | 62.09605 | 130.49600 | 11253 ft | 326 kts | 114° |
| 2026-04-25 10:47 | 62.08607 | 130.54030 | 11619 ft | 343 kts | 114° |
| 2026-04-25 10:47 | 62.07539 | 130.58763 | 11983 ft | 361 kts | 114° |
| 2026-04-25 10:47 | 62.06455 | 130.63551 | 12674 ft | 368 kts | 114° |
| 2026-04-25 10:47 | 62.05334 | 130.68492 | 13483 ft | 372 kts | 114° |
| 2026-04-25 10:48 | 62.04448 | 130.73662 | 14195 ft | 375 kts | 101° |
| 2026-04-25 10:48 | 62.04124 | 130.79149 | 14914 ft | 378 kts | 95° |
| 2026-04-25 10:48 | 62.03812 | 130.84671 | 15624 ft | 382 kts | 96° |
| 2026-04-25 10:48 | 62.03495 | 130.90347 | 16292 ft | 388 kts | 96° |
| 2026-04-25 10:49 | 62.03167 | 130.96030 | 16993 ft | 392 kts | 96° |
| 2026-04-25 10:49 | 62.02839 | 131.01800 | 17652 ft | 396 kts | 96° |
| 2026-04-25 10:49 | 62.02503 | 131.07622 | 18297 ft | 401 kts | 96° |
| 2026-04-25 10:49 | 62.02164 | 131.13466 | 18935 ft | 405 kts | 96° |
| 2026-04-25 10:50 | 62.01813 | 131.19484 | 19581 ft | 409 kts | 96° |
| 2026-04-25 10:50 | 62.01460 | 131.25484 | 20192 ft | 414 kts | 96° |
| 2026-04-25 10:50 | 62.01102 | 131.31538 | 20799 ft | 418 kts | 96° |
| 2026-04-25 10:50 | 62.00736 | 131.37663 | 21393 ft | 423 kts | 96° |
| 2026-04-25 10:51 | 62.00363 | 131.43858 | 21983 ft | 427 kts | 96° |
| 2026-04-25 10:51 | 61.99983 | 131.50127 | 22569 ft | 431 kts | 96° |
| 2026-04-25 10:51 | 61.99599 | 131.56418 | 23147 ft | 434 kts | 96° |
| 2026-04-25 10:51 | 61.99206 | 131.62795 | 23705 ft | 438 kts | 96° |
| 2026-04-25 10:52 | 61.98805 | 131.69266 | 24259 ft | 442 kts | 97° |
| 2026-04-25 10:52 | 61.98403 | 131.75697 | 24822 ft | 445 kts | 97° |
| 2026-04-25 10:52 | 61.97996 | 131.82167 | 25384 ft | 448 kts | 97° |
| 2026-04-25 10:52 | 61.97575 | 131.88796 | 25931 ft | 452 kts | 97° |
| 2026-04-25 10:53 | 61.97154 | 131.95364 | 26475 ft | 455 kts | 97° |
| 2026-04-25 10:53 | 61.96724 | 132.02046 | 27025 ft | 458 kts | 97° |
| 2026-04-25 10:53 | 61.96290 | 132.08722 | 27535 ft | 462 kts | 97° |
| 2026-04-25 10:53 | 61.95848 | 132.15468 | 28048 ft | 465 kts | 97° |
| 2026-04-25 10:54 | 61.95396 | 132.22319 | 28562 ft | 468 kts | 97° |
| 2026-04-25 10:54 | 61.95096 | 132.26836 | 28889 ft | 470 kts | 97° |
| 2026-04-25 10:54 | 61.94486 | 132.35941 | 29515 ft | 474 kts | 97° |
| 2026-04-25 10:54 | 61.94017 | 132.42880 | 29947 ft | 478 kts | 97° |
| 2026-04-25 10:55 | 61.93544 | 132.49846 | 30374 ft | 481 kts | 97° |
| 2026-04-25 10:55 | 61.93064 | 132.56833 | 30762 ft | 484 kts | 97° |
| 2026-04-25 10:55 | 61.92579 | 132.63882 | 31326 ft | 482 kts | 97° |
| 2026-04-25 10:55 | 61.92101 | 132.70944 | 31812 ft | 482 kts | 98° |
| 2026-04-25 10:56 | 61.91626 | 132.77892 | 32263 ft | 481 kts | 98° |
| 2026-04-25 10:56 | 61.91140 | 132.84941 | 32689 ft | 481 kts | 98° |
| 2026-04-25 10:56 | 61.90653 | 132.91965 | 33104 ft | 481 kts | 98° |
| 2026-04-25 10:56 | 61.90165 | 132.98944 | 33504 ft | 481 kts | 98° |
| 2026-04-25 10:57 | 61.89673 | 133.05930 | 33898 ft | 480 kts | 98° |
| 2026-04-25 10:57 | 61.89176 | 133.12920 | 34289 ft | 479 kts | 98° |
| 2026-04-25 10:57 | 61.88675 | 133.19923 | 34622 ft | 480 kts | 98° |
| 2026-04-25 10:57 | 61.88174 | 133.26868 | 34981 ft | 479 kts | 98° |
| 2026-04-25 10:58 | 61.87677 | 133.33719 | 35046 ft | 474 kts | 98° |
| 2026-04-25 10:58 | 61.86670 | 133.47441 | 35059 ft | 476 kts | 98° |
| 2026-04-25 10:59 | 61.85633 | 133.61366 | 35060 ft | 480 kts | 98° |
| 2026-04-25 10:59 | 61.84558 | 133.75207 | 35066 ft | 479 kts | 99° |
| 2026-04-25 11:00 | 61.83458 | 133.89090 | 35065 ft | 480 kts | 99° |
| 2026-04-25 11:00 | 61.82339 | 134.03001 | 35063 ft | 480 kts | 99° |
| 2026-04-25 11:01 | 61.81213 | 134.16814 | 35056 ft | 481 kts | 99° |
| 2026-04-25 11:01 | 61.80067 | 134.30705 | 35050 ft | 481 kts | 99° |
| 2026-04-25 11:02 | 61.78909 | 134.44560 | 35048 ft | 480 kts | 99° |
| 2026-04-25 11:02 | 61.77743 | 134.58339 | 35043 ft | 480 kts | 99° |
| 2026-04-25 11:03 | 61.76552 | 134.72229 | 35045 ft | 482 kts | 100° |
| 2026-04-25 11:03 | 61.75346 | 134.86110 | 35043 ft | 482 kts | 100° |
| 2026-04-25 11:04 | 61.74132 | 134.99921 | 35038 ft | 482 kts | 100° |
| 2026-04-25 11:04 | 61.72904 | 135.13730 | 35044 ft | 482 kts | 100° |
| 2026-04-25 11:05 | 61.71680 | 135.27635 | 35062 ft | 485 kts | 99° |
| 2026-04-25 11:05 | 61.70444 | 135.41547 | 35048 ft | 485 kts | 99° |
| 2026-04-25 11:06 | 61.69199 | 135.55396 | 35032 ft | 484 kts | 99° |
| 2026-04-25 11:06 | 61.67943 | 135.69212 | 35048 ft | 483 kts | 100° |
| 2026-04-25 11:07 | 61.66663 | 135.83122 | 35043 ft | 484 kts | 100° |
| 2026-04-25 11:07 | 61.65370 | 135.96991 | 35022 ft | 485 kts | 100° |
| 2026-04-25 11:08 | 61.64066 | 136.10808 | 35010 ft | 485 kts | 100° |
| 2026-04-25 11:08 | 61.62739 | 136.24705 | 35013 ft | 485 kts | 100° |
| 2026-04-25 11:09 | 61.61406 | 136.38507 | 35005 ft | 486 kts | 100° |
| 2026-04-25 11:09 | 61.60058 | 136.52306 | 35002 ft | 486 kts | 100° |
| 2026-04-25 11:10 | 61.58682 | 136.66231 | 34987 ft | 486 kts | 101° |
| 2026-04-25 11:10 | 61.57304 | 136.80029 | 34975 ft | 487 kts | 101° |
| 2026-04-25 11:11 | 61.55901 | 136.93927 | 34976 ft | 487 kts | 101° |
| 2026-04-25 11:11 | 61.54495 | 137.07701 | 34976 ft | 488 kts | 101° |
| 2026-04-25 11:12 | 61.53053 | 137.21668 | 34967 ft | 489 kts | 100° |
| 2026-04-25 11:12 | 61.51619 | 137.35423 | 34961 ft | 489 kts | 100° |
| 2026-04-25 11:13 | 61.50154 | 137.49315 | 34953 ft | 489 kts | 100° |
| 2026-04-25 11:13 | 61.48685 | 137.63109 | 34943 ft | 490 kts | 100° |
| 2026-04-25 11:14 | 61.47190 | 137.76991 | 34926 ft | 490 kts | 101° |
| 2026-04-25 11:14 | 61.45674 | 137.90927 | 34924 ft | 491 kts | 101° |
| 2026-04-25 11:15 | 61.44146 | 138.04842 | 34935 ft | 492 kts | 101° |
| 2026-04-25 11:15 | 61.42611 | 138.18661 | 34919 ft | 490 kts | 101° |
| 2026-04-25 11:16 | 61.40276 | 138.39433 | 34919 ft | 491 kts | 101° |
| 2026-04-25 11:16 | 61.38703 | 138.53252 | 34926 ft | 491 kts | 100° |
| 2026-04-25 11:17 | 61.37119 | 138.67026 | 34929 ft | 490 kts | 101° |
| 2026-04-25 11:17 | 61.35528 | 138.80739 | 34933 ft | 491 kts | 101° |
| 2026-04-25 11:18 | 61.33915 | 138.94499 | 34926 ft | 490 kts | 101° |
| 2026-04-25 11:18 | 61.32287 | 139.08249 | 34926 ft | 490 kts | 101° |
| 2026-04-25 11:19 | 61.30651 | 139.21942 | 34919 ft | 492 kts | 101° |
| 2026-04-25 11:19 | 61.28992 | 139.35701 | 34910 ft | 491 kts | 101° |
| 2026-04-25 11:20 | 61.27327 | 139.49371 | 34912 ft | 491 kts | 101° |
| 2026-04-25 11:20 | 61.25642 | 139.63086 | 34912 ft | 492 kts | 101° |
| 2026-04-25 11:21 | 61.23950 | 139.76729 | 34912 ft | 492 kts | 102° |
| 2026-04-25 11:21 | 61.22233 | 139.90443 | 34905 ft | 492 kts | 102° |
| 2026-04-25 11:22 | 61.20800 | 140.01799 | 34899 ft | 492 kts | 101° |
| 2026-04-25 11:22 | 61.18765 | 140.17772 | 34894 ft | 491 kts | 101° |
| 2026-04-25 11:23 | 61.17013 | 140.31396 | 34903 ft | 491 kts | 101° |
| 2026-04-25 11:23 | 61.15251 | 140.44980 | 34931 ft | 491 kts | 101° |
| 2026-04-25 11:24 | 61.13485 | 140.58484 | 34950 ft | 491 kts | 101° |
| 2026-04-25 11:24 | 61.11692 | 140.72084 | 34947 ft | 492 kts | 102° |
| 2026-04-25 11:25 | 61.09883 | 140.85686 | 34937 ft | 491 kts | 102° |
| 2026-04-25 11:25 | 61.08058 | 140.99292 | 34922 ft | 492 kts | 102° |
| 2026-04-25 11:26 | 61.06222 | 141.12854 | 34931 ft | 493 kts | 102° |
| 2026-04-25 11:26 | 61.04371 | 141.26419 | 34921 ft | 493 kts | 102° |
| 2026-04-25 11:27 | 61.02512 | 141.39923 | 34913 ft | 493 kts | 101° |
| 2026-04-25 11:27 | 61.00950 | 141.51186 | 34909 ft | 492 kts | 101° |
| 2026-04-25 11:28 | 60.98744 | 141.66951 | 34903 ft | 491 kts | 102° |
| 2026-04-25 11:28 | 60.96848 | 141.80383 | 34902 ft | 491 kts | 102° |
| 2026-04-25 11:29 | 60.94934 | 141.93837 | 34910 ft | 492 kts | 102° |
| 2026-04-25 11:29 | 60.92998 | 142.07327 | 34926 ft | 491 kts | 102° |
| 2026-04-25 11:30 | 60.91069 | 142.20666 | 34951 ft | 491 kts | 102° |
| 2026-04-25 11:30 | 60.89119 | 142.34038 | 34949 ft | 491 kts | 102° |
| 2026-04-25 11:31 | 60.87148 | 142.47446 | 34962 ft | 491 kts | 102° |
| 2026-04-25 11:31 | 60.85171 | 142.60791 | 34985 ft | 492 kts | 102° |
| 2026-04-25 11:32 | 60.83176 | 142.74147 | 35008 ft | 493 kts | 102° |
| 2026-04-25 11:32 | 60.81161 | 142.87540 | 34995 ft | 494 kts | 102° |
| 2026-04-25 11:33 | 60.79134 | 143.00899 | 34970 ft | 493 kts | 102° |
| 2026-04-25 11:33 | 60.77089 | 143.14262 | 34954 ft | 493 kts | 102° |
| 2026-04-25 11:34 | 60.75047 | 143.27499 | 34939 ft | 492 kts | 102° |
| 2026-04-25 11:34 | 60.72984 | 143.40770 | 34939 ft | 492 kts | 102° |
| 2026-04-25 11:35 | 60.70906 | 143.54033 | 34950 ft | 491 kts | 102° |
| 2026-04-25 11:35 | 60.68827 | 143.67204 | 34973 ft | 492 kts | 103° |
| 2026-04-25 11:36 | 60.66712 | 143.80501 | 34987 ft | 492 kts | 103° |
| 2026-04-25 11:36 | 60.64611 | 143.93611 | 34983 ft | 491 kts | 102° |
| 2026-04-25 11:37 | 60.62474 | 144.06850 | 34972 ft | 490 kts | 102° |
| 2026-04-25 11:37 | 60.60346 | 144.19939 | 34923 ft | 491 kts | 103° |
| 2026-04-25 11:38 | 60.58193 | 144.33124 | 34907 ft | 490 kts | 102° |
| 2026-04-25 11:38 | 60.56048 | 144.46191 | 34941 ft | 490 kts | 102° |
| 2026-04-25 11:39 | 60.53894 | 144.59225 | 34978 ft | 490 kts | 102° |
| 2026-04-25 11:39 | 60.51732 | 144.72214 | 34986 ft | 488 kts | 103° |
| 2026-04-25 11:40 | 60.49548 | 144.85240 | 35003 ft | 489 kts | 103° |
| 2026-04-25 11:40 | 60.47340 | 144.98312 | 35022 ft | 488 kts | 103° |
| 2026-04-25 11:41 | 60.45157 | 145.11147 | 35028 ft | 486 kts | 103° |
| 2026-04-25 11:41 | 60.42938 | 145.24104 | 35049 ft | 488 kts | 103° |
| 2026-04-25 11:42 | 60.40707 | 145.37042 | 35015 ft | 489 kts | 103° |
| 2026-04-25 11:42 | 60.38482 | 145.49847 | 35004 ft | 487 kts | 104° |
| 2026-04-25 11:43 | 60.36225 | 145.62756 | 35001 ft | 488 kts | 103° |
| 2026-04-25 11:43 | 60.33957 | 145.75632 | 34990 ft | 489 kts | 104° |
| 2026-04-25 11:44 | 60.31685 | 145.88448 | 34995 ft | 488 kts | 104° |
| 2026-04-25 11:44 | 60.30220 | 146.01605 | 35005 ft | 477 kts | 92° |
| 2026-04-25 11:45 | 60.29345 | 146.14784 | 35002 ft | 475 kts | 92° |
| 2026-04-25 11:45 | 60.28465 | 146.27916 | 35009 ft | 475 kts | 92° |
| 2026-04-25 11:46 | 60.27578 | 146.41000 | 34984 ft | 475 kts | 92° |
| 2026-04-25 11:46 | 60.26675 | 146.54150 | 34946 ft | 476 kts | 92° |
| 2026-04-25 11:47 | 60.25756 | 146.67335 | 35007 ft | 476 kts | 93° |
| 2026-04-25 11:47 | 60.24823 | 146.80519 | 35070 ft | 476 kts | 93° |
| 2026-04-25 11:48 | 60.23891 | 146.93449 | 35041 ft | 458 kts | 93° |
| 2026-04-25 11:48 | 60.23431 | 146.99771 | 34861 ft | 449 kts | 92° |
| 2026-04-25 11:48 | 60.22980 | 147.05966 | 34340 ft | 451 kts | 92° |
| 2026-04-25 11:49 | 60.22527 | 147.12141 | 33640 ft | 448 kts | 92° |
| 2026-04-25 11:49 | 60.22074 | 147.18263 | 32789 ft | 448 kts | 91° |
| 2026-04-25 11:49 | 60.21617 | 147.24399 | 31848 ft | 450 kts | 91° |
| 2026-04-25 11:49 | 60.21157 | 147.30556 | 31016 ft | 446 kts | 91° |
| 2026-04-25 11:50 | 60.20698 | 147.36629 | 30474 ft | 441 kts | 91° |
| 2026-04-25 11:50 | 60.20236 | 147.42778 | 29983 ft | 451 kts | 91° |
| 2026-04-25 11:50 | 60.19762 | 147.49065 | 29423 ft | 466 kts | 92° |
| 2026-04-25 11:50 | 60.19266 | 147.55481 | 28787 ft | 463 kts | 92° |
| 2026-04-25 11:51 | 60.18773 | 147.61800 | 28187 ft | 453 kts | 92° |
| 2026-04-25 11:51 | 60.18294 | 147.67909 | 27621 ft | 443 kts | 93° |
| 2026-04-25 11:51 | 60.17818 | 147.73976 | 27075 ft | 436 kts | 93° |
| 2026-04-25 11:51 | 60.17354 | 147.79877 | 26538 ft | 432 kts | 93° |
| 2026-04-25 11:52 | 60.16886 | 147.85768 | 25999 ft | 426 kts | 93° |
| 2026-04-25 11:52 | 60.16421 | 147.91618 | 25527 ft | 425 kts | 93° |
| 2026-04-25 11:52 | 60.15957 | 147.97403 | 25018 ft | 422 kts | 93° |
| 2026-04-25 11:52 | 60.15492 | 148.03171 | 24498 ft | 419 kts | 93° |
| 2026-04-25 11:53 | 60.15027 | 148.08888 | 23991 ft | 415 kts | 93° |
| 2026-04-25 11:53 | 60.14565 | 148.14554 | 23492 ft | 412 kts | 93° |
| 2026-04-25 11:53 | 60.14102 | 148.20203 | 22997 ft | 408 kts | 93° |
| 2026-04-25 11:53 | 60.13644 | 148.25755 | 22509 ft | 405 kts | 94° |
| 2026-04-25 11:54 | 60.13186 | 148.31284 | 22008 ft | 401 kts | 93° |
| 2026-04-25 11:54 | 60.12734 | 148.36703 | 21493 ft | 398 kts | 93° |
| 2026-04-25 11:54 | 60.11821 | 148.47560 | 20493 ft | 391 kts | 94° |
| 2026-04-25 11:55 | 60.11372 | 148.52875 | 20005 ft | 388 kts | 94° |
| 2026-04-25 11:55 | 60.10922 | 148.58156 | 19489 ft | 385 kts | 93° |
| 2026-04-25 11:55 | 60.10474 | 148.63409 | 19065 ft | 382 kts | 94° |
| 2026-04-25 11:55 | 60.10026 | 148.68625 | 18592 ft | 379 kts | 95° |
| 2026-04-25 11:56 | 60.09576 | 148.73834 | 18118 ft | 376 kts | 94° |
| 2026-04-25 11:56 | 60.09130 | 148.78986 | 17652 ft | 374 kts | 95° |
| 2026-04-25 11:56 | 60.08690 | 148.84029 | 17187 ft | 371 kts | 95° |
| 2026-04-25 11:56 | 60.08248 | 148.89078 | 16703 ft | 368 kts | 95° |
| 2026-04-25 11:57 | 60.07807 | 148.94092 | 16269 ft | 365 kts | 95° |
| 2026-04-25 11:57 | 60.07368 | 148.99051 | 15818 ft | 362 kts | 95° |
| 2026-04-25 11:57 | 60.06929 | 149.04011 | 15376 ft | 360 kts | 95° |
| 2026-04-25 11:57 | 60.06491 | 149.08923 | 14943 ft | 359 kts | 95° |
| 2026-04-25 11:58 | 60.06057 | 149.13794 | 14462 ft | 357 kts | 95° |
| 2026-04-25 11:58 | 60.05625 | 149.18631 | 14015 ft | 353 kts | 95° |
| 2026-04-25 11:58 | 60.05198 | 149.23389 | 13574 ft | 349 kts | 96° |
| 2026-04-25 11:58 | 60.04769 | 149.28143 | 13120 ft | 346 kts | 96° |
| 2026-04-25 11:59 | 60.04345 | 149.32837 | 12663 ft | 342 kts | 96° |
| 2026-04-25 11:59 | 60.03919 | 149.37524 | 12264 ft | 341 kts | 96° |
| 2026-04-25 11:59 | 60.03497 | 149.42152 | 11855 ft | 338 kts | 96° |
| 2026-04-25 12:00 | 60.02657 | 149.51292 | 11030 ft | 333 kts | 97° |
| 2026-04-25 12:00 | 60.02027 | 149.55705 | 10585 ft | 337 kts | 105° |
| 2026-04-25 12:00 | 60.00541 | 149.64224 | 10446 ft | 310 kts | 104° |
| 2026-04-25 12:01 | 59.99848 | 149.68202 | 10444 ft | 297 kts | 105° |
| 2026-04-25 12:01 | 59.99176 | 149.72037 | 10446 ft | 283 kts | 105° |
| 2026-04-25 12:01 | 59.98544 | 149.75641 | 10453 ft | 271 kts | 105° |
| 2026-04-25 12:01 | 59.97929 | 149.79144 | 10268 ft | 265 kts | 104° |
| 2026-04-25 12:02 | 59.96721 | 149.86012 | 9709 ft | 261 kts | 104° |
| 2026-04-25 12:02 | 59.96117 | 149.89441 | 9385 ft | 260 kts | 104° |
| 2026-04-25 12:02 | 59.95515 | 149.92844 | 9083 ft | 259 kts | 104° |
| 2026-04-25 12:03 | 59.94924 | 149.96178 | 8791 ft | 258 kts | 104° |
| 2026-04-25 12:03 | 59.94368 | 149.99583 | 6312 ft | 249 kts | 100° |
| 2026-04-25 12:03 | 59.93815 | 150.02774 | 6063 ft | 244 kts | 105° |
| 2026-04-25 12:03 | 59.93213 | 150.05931 | 5733 ft | 244 kts | 105° |
| 2026-04-25 12:04 | 59.92702 | 150.09105 | 5531 ft | 241 kts | 93° |
| 2026-04-25 12:04 | 59.92595 | 150.12460 | 5237 ft | 243 kts | 88° |
| 2026-04-25 12:04 | 59.92517 | 150.15895 | 4555 ft | 254 kts | 89° |
| 2026-04-25 12:04 | 59.92415 | 150.19263 | 4664 ft | 238 kts | 90° |
| 2026-04-25 12:05 | 59.92328 | 150.22501 | 4550 ft | 242 kts | 88° |
| 2026-04-25 12:05 | 59.92263 | 150.25876 | 4311 ft | 241 kts | 89° |
| 2026-04-25 12:05 | 59.92183 | 150.29009 | 4530 ft | 213 kts | 88° |
| 2026-04-25 12:05 | 59.92119 | 150.31763 | 4470 ft | 191 kts | 88° |
| 2026-04-25 12:06 | 59.92061 | 150.34340 | 4226 ft | 175 kts | 88° |
| 2026-04-25 12:06 | 59.92002 | 150.36597 | 4030 ft | 155 kts | 88° |
| 2026-04-25 12:06 | 59.91954 | 150.38637 | 3763 ft | 141 kts | 86° |
| 2026-04-25 12:06 | 59.91909 | 150.40508 | 3525 ft | 133 kts | 87° |
| 2026-04-25 12:07 | 59.91864 | 150.42360 | 3351 ft | 136 kts | 86° |
| 2026-04-25 12:07 | 59.91824 | 150.44260 | 3173 ft | 140 kts | 87° |
| 2026-04-25 12:07 | 59.91779 | 150.46184 | 2961 ft | 139 kts | 88° |
| 2026-04-25 12:07 | 59.91732 | 150.48090 | 2757 ft | 138 kts | 88° |
| 2026-04-25 12:08 | 59.91685 | 150.50011 | 2560 ft | 138 kts | 89° |
| 2026-04-25 12:08 | 59.91637 | 150.51906 | 2363 ft | 138 kts | 89° |
| 2026-04-25 12:08 | 59.91589 | 150.53822 | 2169 ft | 141 kts | 90° |
| 2026-04-25 12:08 | 59.91539 | 150.55786 | 1963 ft | 142 kts | 90° |
| 2026-04-25 12:09 | 59.91487 | 150.57767 | 1745 ft | 142 kts | 90° |
| 2026-04-25 12:09 | 59.91435 | 150.59718 | 1535 ft | 141 kts | 90° |
| 2026-04-25 12:09 | 59.91382 | 150.61687 | 1327 ft | 141 kts | 90° |
| 2026-04-25 12:09 | 59.91322 | 150.63632 | 1115 ft | 141 kts | 91° |
| 2026-04-25 12:10 | 59.91254 | 150.65565 | 903 ft | 141 kts | 91° |
| 2026-04-25 12:10 | 59.91205 | 150.67497 | 719 ft | 138 kts | 91° |
| 2026-04-25 12:10 | 59.91165 | 150.69394 | 531 ft | 137 kts | 91° |
| 2026-04-25 12:10 | 59.91133 | 150.70776 | 537 ft | 129 kts | 92° |